Terminal Aerodrome Forecast
Issued by NWS

Home | Current Version | Previous Version | Text Only | Print | Product List | Glossary On
Versions: 1 2 3 4 5 6 7 8 9 10 11 12
014
FTUS45 KABQ 101122
TAFLVS
TAF
KLVS 101122Z 1012/1112 34005KT P6SM SKC
     FM101800 25011G18KT P6SM SKC
     FM110100 27006KT P6SM SKC
     FM110600 01007KT P6SM SKC=

USA.gov is the U.S. government's official web portal to all federal, state and local government web resources and services.